KACK

UTC

Nantucket Memorial Airport

Nantucket, Massachusetts, United States

METAR - Current

KACK 221453Z 00000KT 10SM 19/13 A3041 RMK AO2 SLP298 T01940128 51010 $

Observed

Sep 22 14:53 UTC

Flight Rules

UNK

Visibility

10 SM

Temperature

19°C=66°F

Dew Point

13°C=55°F

Humidity

68%

Altimeter

30.41 Hg

Pressure

1030.0 hPa

METAR - Previous

KACK 221353Z 06010KT CLR 18/13 A3041 RMK AO2 SLP296 T01830133 RVRNO $

Observed

Sep 22 13:53 UTC

Flight Rules

UNK

Wind

060° at 10 KTS

Clouds

  • Clear skies

Temperature

18°C=64°F

Dew Point

13°C=55°F

Humidity

73%

Altimeter

30.41 Hg

Pressure

1030.0 hPa